Time;durP1;ratioP1;P1;durP2;ratioP2;P2;SDS_P1;SDS_P2;PMS_P1;PMS_P2;Temp;Humidity;BMP_temperature;BMP_pressure;BME280_temperature;BME280_humidity;BME280_pressure;Samples;Min_cycle;Max_cycle;Signal;HPM_P1;HPM_P2
2021/04/05 00:00:36;;;;;;;5.55;1.40;;;22.10;46.00;;;;;;20856830;28;20079;-23
2021/04/05 00:10:50;;;;;;;3.67;1.52;;;21.90;46.40;;;;;;20854991;28;20040;-24
2021/04/05 00:20:54;;;;;;;2.85;1.38;;;21.90;46.50;;;;;;20856256;28;20056;-21
2021/04/05 00:30:55;;;;;;;2.83;1.60;;;21.70;47.00;;;;;;20844259;28;20116;-22
2021/04/05 00:41:06;;;;;;;3.20;1.85;;;21.70;46.90;;;;;;20845798;28;20498;-21
2021/04/05 00:51:14;;;;;;;7.25;3.78;;;21.60;47.20;;;;;;20828823;28;20446;-24
2021/04/05 01:01:19;;;;;;;5.27;3.73;;;21.60;44.90;;;;;;20846809;28;20021;-22
2021/04/05 01:11:22;;;;;;;4.78;4.28;;;21.50;43.70;;;;;;20842266;28;20064;-23
2021/04/05 01:21:24;;;;;;;6.93;3.83;;;21.20;42.80;;;;;;20852085;28;20032;-23
2021/04/05 01:31:24;;;;;;;4.38;3.75;;;21.50;42.20;;;;;;20844148;28;20472;-21
2021/04/05 01:41:29;;;;;;;6.05;3.47;;;21.30;41.80;;;;;;20861235;28;20030;-21
2021/04/05 01:51:30;;;;;;;6.32;4.18;;;21.70;41.30;;;;;;20876034;28;20057;-21
2021/04/05 02:01:31;;;;;;;5.80;4.00;;;21.70;40.90;;;;;;20861463;28;20744;-22
2021/04/05 02:11:36;;;;;;;6.13;4.30;;;21.80;40.60;;;;;;20833498;28;20435;-22
2021/04/05 02:21:37;;;;;;;6.03;4.28;;;21.80;40.30;;;;;;20825622;28;20033;-22
2021/04/05 02:31:38;;;;;;;8.17;3.13;;;21.70;40.10;;;;;;20854279;28;20566;-22
2021/04/05 02:41:43;;;;;;;3.78;3.05;;;21.90;40.20;;;;;;20859621;28;20037;-19
2021/04/05 02:51:49;;;;;;;7.88;3.90;;;21.80;40.20;;;;;;20854783;28;20040;-22
2021/04/05 03:01:51;;;;;;;8.15;3.17;;;21.90;40.00;;;;;;20850334;28;20074;-22
2021/04/05 03:11:55;;;;;;;5.88;3.25;;;21.80;40.10;;;;;;20858688;28;20025;-24
2021/04/05 03:21:56;;;;;;;4.93;3.63;;;21.90;40.50;;;;;;20864731;28;20108;-23
2021/04/05 03:31:59;;;;;;;4.95;3.58;;;21.90;39.90;;;;;;20864300;28;20037;-21
2021/04/05 03:42:08;;;;;;;7.82;3.75;;;21.70;39.80;;;;;;20866802;28;20102;-25
2021/04/05 03:52:15;;;;;;;6.60;4.72;;;21.80;39.70;;;;;;20855877;28;20029;-22
2021/04/05 04:02:27;;;;;;;5.87;3.40;;;21.70;40.20;;;;;;20852801;28;20037;-20
2021/04/05 04:12:31;;;;;;;5.82;3.47;;;21.80;39.50;;;;;;20856901;28;20029;-21
2021/04/05 04:22:33;;;;;;;10.85;3.67;;;21.70;39.60;;;;;;20847564;28;20033;-23
2021/04/05 04:32:34;;;;;;;7.13;3.75;;;21.70;39.30;;;;;;20854009;28;20022;-22
2021/04/05 04:42:35;;;;;;;6.50;3.75;;;21.80;39.40;;;;;;20853694;28;20041;-20
2021/04/05 04:52:35;;;;;;;5.20;3.80;;;21.70;39.40;;;;;;20845123;28;20041;-22
2021/04/05 05:02:40;;;;;;;7.85;3.42;;;21.70;39.30;;;;;;20840194;28;20099;-21
2021/04/05 05:12:42;;;;;;;5.93;3.55;;;21.40;39.20;;;;;;20844468;28;20488;-23
2021/04/05 05:22:47;;;;;;;7.38;4.57;;;21.80;39.30;;;;;;20847402;28;20033;-24
2021/04/05 05:32:49;;;;;;;6.00;3.63;;;21.60;39.20;;;;;;20876443;28;20123;-22
2021/04/05 05:43:26;;;;;;;6.07;3.88;;;21.60;39.20;;;;;;20877303;28;20399;-22
2021/04/05 05:53:42;;;;;;;6.70;3.72;;;21.60;39.20;;;;;;20831476;28;20425;-19
2021/04/05 06:03:53;;;;;;;5.88;3.33;;;21.80;39.40;;;;;;20856521;28;20048;-20
2021/04/05 06:14:06;;;;;;;5.78;3.70;;;21.60;39.00;;;;;;20861264;28;20033;-21
2021/04/05 06:24:25;;;;;;;5.32;3.38;;;21.60;39.00;;;;;;20863299;28;20056;-23
2021/04/05 06:34:36;;;;;;;4.47;2.97;;;21.70;38.90;;;;;;20865579;28;20037;-19
2021/04/05 06:45:08;;;;;;;5.40;3.20;;;21.60;39.00;;;;;;20867609;28;20124;-21
2021/04/05 06:55:39;;;;;;;5.05;2.78;;;21.50;39.10;;;;;;20893255;22;20040;-23
2021/04/05 07:05:59;;;;;;;7.85;3.22;;;21.30;39.30;;;;;;20914999;28;20055;-21
2021/04/05 07:16:39;;;;;;;6.95;2.38;;;21.20;39.60;;;;;;20916687;28;20028;-23
2021/04/05 07:26:53;;;;;;;7.95;3.17;;;21.10;40.10;;;;;;20917204;28;20029;-19
2021/04/05 07:37:24;;;;;;;11.45;3.72;;;20.90;40.40;;;;;;20923771;28;20112;-25
2021/04/05 07:47:42;;;;;;;6.43;2.42;;;20.80;40.70;;;;;;20917095;28;20101;-25
2021/04/05 07:58:09;;;;;;;6.43;2.03;;;20.70;41.00;;;;;;20917632;28;20033;-27
2021/04/05 08:08:40;;;;;;;10.05;2.90;;;20.60;41.20;;;;;;20882125;28;20036;-21
2021/04/05 08:19:07;;;;;;;8.20;2.63;;;20.60;41.60;;;;;;20894981;28;20025;-27
2021/04/05 08:29:28;;;;;;;9.70;3.17;;;20.60;41.20;;;;;;20905351;28;20462;-26
2021/04/05 08:39:43;;;;;;;11.35;2.50;;;21.20;42.20;;;;;;20909523;28;20036;-19
2021/04/05 08:49:47;;;;;;;5.32;2.20;;;21.30;41.60;;;;;;20909060;28;20025;-22
2021/04/05 08:59:55;;;;;;;18.02;3.65;;;21.50;41.30;;;;;;20864979;28;20025;-23
2021/04/05 09:09:58;;;;;;;12.27;3.30;;;21.40;39.20;;;;;;20908341;28;20479;-19
2021/04/05 09:20:20;;;;;;;17.20;3.20;;;22.20;39.60;;;;;;20907348;28;20058;-23
2021/04/05 09:30:31;;;;;;;13.60;3.10;;;22.70;40.80;;;;;;20907299;28;20052;-25
2021/04/05 09:41:08;;;;;;;21.25;3.90;;;22.70;40.90;;;;;;20906049;28;20025;-23
2021/04/05 09:51:18;;;;;;;26.60;6.03;;;22.40;41.50;;;;;;20907824;28;20025;-20
2021/04/05 10:01:24;;;;;;;15.80;4.35;;;22.30;41.80;;;;;;20851620;28;20117;-22
2021/04/05 10:11:28;;;;;;;11.55;3.17;;;22.10;42.30;;;;;;20880018;28;20029;-22
2021/04/05 10:21:30;;;;;;;11.60;2.72;;;21.90;41.30;;;;;;20901608;28;20036;-21
2021/04/05 10:31:32;;;;;;;13.70;3.20;;;21.70;41.60;;;;;;20901070;28;20033;-24
2021/04/05 10:41:37;;;;;;;11.65;2.53;;;21.70;41.90;;;;;;20916983;28;20511;-21
2021/04/05 10:51:55;;;;;;;7.97;2.33;;;21.60;42.30;;;;;;20930032;28;20037;-20
2021/04/05 11:02:06;;;;;;;14.75;1.83;;;21.70;42.60;;;;;;20933027;28;20029;-22
2021/04/05 11:12:09;;;;;;;6.60;2.05;;;21.70;42.00;;;;;;20901193;28;20041;-19
2021/04/05 11:22:17;;;;;;;8.23;2.70;;;21.70;41.90;;;;;;20870673;28;20180;-20
2021/04/05 11:32:20;;;;;;;10.73;2.03;;;21.80;42.40;;;;;;20910035;28;20032;-24
2021/04/05 11:42:22;;;;;;;22.55;3.08;;;21.80;42.10;;;;;;20928606;28;20035;-24
2021/04/05 11:52:37;;;;;;;20.10;3.25;;;21.90;41.70;;;;;;20925953;28;20044;-22
2021/04/05 12:03:07;;;;;;;23.75;3.53;;;21.90;41.40;;;;;;20927598;28;20033;-19
2021/04/05 12:13:16;;;;;;;11.93;2.40;;;21.90;40.80;;;;;;20880568;28;20056;-20
2021/04/05 12:23:23;;;;;;;18.70;2.60;;;21.80;40.70;;;;;;20901200;28;20042;-20
2021/04/05 12:33:32;;;;;;;14.77;2.28;;;21.80;40.60;;;;;;20920829;28;20037;-20
2021/04/05 12:43:37;;;;;;;13.70;3.42;;;21.50;40.20;;;;;;20870355;28;20028;-20
2021/04/05 12:53:42;;;;;;;20.77;3.67;;;21.70;39.70;;;;;;20898746;28;20415;-23
2021/04/05 13:03:49;;;;;;;9.55;2.83;;;21.60;41.10;;;;;;20905093;28;20025;-20
2021/04/05 13:14:02;;;;;;;18.77;3.70;;;21.60;40.80;;;;;;20903079;28;20024;-22
2021/04/05 13:24:08;;;;;;;15.18;1.42;;;21.50;41.50;;;;;;20898324;28;20029;-24
2021/04/05 13:34:11;;;;;;;5.63;0.95;;;21.00;33.80;;;;;;20907240;28;20583;-22
2021/04/05 13:44:15;;;;;;;6.70;0.88;;;20.40;30.00;;;;;;20893914;28;20033;-22
2021/04/05 13:54:22;;;;;;;6.05;1.35;;;20.10;28.00;;;;;;20854406;28;20046;-24
2021/04/05 14:04:27;;;;;;;10.20;1.17;;;21.30;31.40;;;;;;20906980;28;20025;-20
2021/04/05 14:14:30;;;;;;;8.85;1.48;;;22.00;33.10;;;;;;20871006;28;20103;-20
2021/04/05 14:24:42;;;;;;;3.95;1.05;;;22.80;34.10;;;;;;20876718;28;20032;-18
2021/04/05 14:34:51;;;;;;;8.85;1.00;;;23.20;34.50;;;;;;20921316;28;20029;-18
2021/04/05 14:44:59;;;;;;;8.93;0.90;;;23.10;36.00;;;;;;20919206;28;20021;-20
2021/04/05 14:55:03;;;;;;;9.25;2.17;;;22.80;37.00;;;;;;20917047;28;20065;-18
2021/04/05 15:05:05;;;;;;;6.88;1.05;;;22.60;38.20;;;;;;20913070;28;20473;-25
2021/04/05 15:15:14;;;;;;;6.57;0.88;;;22.40;39.00;;;;;;20885924;28;20041;-19
2021/04/05 15:25:15;;;;;;;19.33;3.50;;;22.10;39.60;;;;;;20837569;28;20105;-24
2021/04/05 15:35:19;;;;;;;10.35;2.20;;;22.40;40.00;;;;;;20829210;28;20029;-21
2021/04/05 15:45:50;;;;;;;11.07;1.77;;;22.40;39.90;;;;;;20855895;28;20088;-19
2021/04/05 15:56:12;;;;;;;7.60;1.05;;;22.40;39.70;;;;;;20847447;28;20033;-21
2021/04/05 16:06:35;;;;;;;18.88;5.15;;;22.60;39.60;;;;;;20909305;28;20029;-24
2021/04/05 16:16:44;;;;;;;14.60;4.55;;;22.50;38.20;;;;;;20851305;28;20032;-19
2021/04/05 16:26:54;;;;;;;12.38;3.85;;;22.40;37.40;;;;;;20910247;28;20105;-25
2021/04/05 16:37:03;;;;;;;9.95;3.40;;;22.50;36.80;;;;;;20908512;28;20033;-22
2021/04/05 16:47:08;;;;;;;;;;;22.40;36.60;;;;;;20908444;28;20025;-21
2021/04/05 16:57:11;;;;;;;14.18;2.90;;;22.50;36.60;;;;;;20907647;28;19965;-20
2021/04/05 17:07:17;;;;;;;12.70;2.70;;;22.40;37.10;;;;;;20874903;28;20558;-21
2021/04/05 17:17:36;;;;;;;10.30;2.15;;;22.40;37.90;;;;;;20898364;28;20490;-23
2021/04/05 17:27:45;;;;;;;;;;;22.50;39.30;;;;;;20920041;28;20043;-18
2021/04/05 17:37:55;;;;;;;6.67;2.87;;;22.70;41.40;;;;;;20898533;28;19913;-23
2021/04/05 17:48:14;;;;;;;11.32;1.73;;;22.60;41.80;;;;;;20911423;28;20061;-24
2021/04/05 17:58:18;;;;;;;6.22;1.00;;;22.40;41.50;;;;;;20888311;28;20052;-25
2021/04/05 18:08:32;;;;;;;6.10;1.20;;;22.40;40.40;;;;;;20881146;28;20492;-24
2021/04/05 18:18:48;;;;;;;3.72;1.25;;;22.30;38.60;;;;;;20866428;28;20420;-25
2021/04/05 18:29:14;;;;;;;4.95;1.05;;;22.20;39.00;;;;;;20883372;28;20021;-27
2021/04/05 18:39:19;;;;;;;8.00;2.17;;;22.10;39.00;;;;;;20898353;28;20039;-26
2021/04/05 18:49:30;;;;;;;5.53;1.00;;;22.00;39.00;;;;;;20907611;28;20032;-24
2021/04/05 18:59:39;;;;;;;6.78;1.33;;;22.20;38.90;;;;;;20917404;22;20045;-20
2021/04/05 19:09:53;;;;;;;4.07;1.20;;;22.20;39.30;;;;;;20894769;28;20399;-18
2021/04/05 19:19:55;;;;;;;4.57;0.90;;;22.20;39.70;;;;;;20913173;28;20041;-20
2021/04/05 19:30:17;;;;;;;4.35;0.88;;;22.40;40.20;;;;;;20847078;28;20440;-18
2021/04/05 19:40:56;;;;;;;5.15;1.02;;;22.40;40.70;;;;;;20848535;28;20116;-21
2021/04/05 19:51:04;;;;;;;4.43;1.13;;;22.30;40.80;;;;;;20906088;28;20021;-21
2021/04/05 20:01:20;;;;;;;5.93;0.80;;;22.50;41.00;;;;;;20892077;28;20030;-18
2021/04/05 20:11:58;;;;;;;2.47;0.52;;;22.50;41.70;;;;;;20881067;28;20495;-20
2021/04/05 20:22:05;;;;;;;2.53;0.60;;;22.70;41.70;;;;;;20900053;28;20584;-22
2021/04/05 20:32:27;;;;;;;3.63;0.63;;;22.60;42.20;;;;;;20861355;28;20041;-21
2021/04/05 20:42:55;;;;;;;1.77;0.45;;;22.60;42.20;;;;;;20887785;28;20053;-24
2021/04/05 20:53:09;;;;;;;4.17;0.70;;;22.60;42.60;;;;;;20858686;28;20029;-20
2021/04/05 21:03:11;;;;;;;1.85;0.60;;;22.60;42.70;;;;;;20933042;28;20402;-22
2021/04/05 21:13:24;;;;;;;4.30;0.63;;;22.40;42.40;;;;;;20935483;28;20033;-20
2021/04/05 21:23:46;;;;;;;2.88;0.65;;;22.20;42.60;;;;;;20895210;28;20029;-23
2021/04/05 21:34:10;;;;;;;2.05;0.60;;;22.00;42.80;;;;;;20861137;28;20037;-21
2021/04/05 21:44:15;;;;;;;5.10;0.88;;;21.80;42.90;;;;;;20849644;28;20041;-24
2021/04/05 21:54:38;;;;;;;2.72;0.50;;;21.60;43.10;;;;;;20851026;28;20648;-25
2021/04/05 22:04:46;;;;;;;4.25;0.82;;;21.40;43.20;;;;;;20901197;28;20033;-20
2021/04/05 22:14:49;;;;;;;2.43;0.93;;;21.30;43.30;;;;;;20900023;28;20025;-19
2021/04/05 22:25:01;;;;;;;3.25;0.90;;;21.10;42.70;;;;;;20897533;28;20029;-23
2021/04/05 22:35:04;;;;;;;4.72;0.70;;;21.00;42.40;;;;;;20904083;28;20041;-23
2021/04/05 22:45:11;;;;;;;4.20;0.70;;;20.80;42.10;;;;;;20914747;28;20033;-22
2021/04/05 22:55:14;;;;;;;2.22;0.50;;;20.70;42.00;;;;;;20915370;28;20131;-20
2021/04/05 23:05:16;;;;;;;2.45;0.73;;;20.60;41.80;;;;;;20914568;28;20395;-18
2021/04/05 23:15:27;;;;;;;2.15;0.40;;;20.50;41.90;;;;;;20895132;28;20078;-19
2021/04/05 23:25:31;;;;;;;2.90;0.60;;;20.30;42.00;;;;;;20912412;28;20017;-20
2021/04/05 23:35:36;;;;;;;3.78;0.75;;;20.20;41.90;;;;;;20912157;28;20033;-18
2021/04/05 23:45:38;;;;;;;2.67;0.55;;;20.20;42.00;;;;;;20912869;28;20100;-25
2021/04/05 23:55:41;;;;;;;1.40;0.60;;;20.10;41.80;;;;;;20914377;28;20039;-22
